Ocean Fortune — C6BI9 — position and weather

sailwx.info

Track history (hours):
 
Tides and Currents Weather Stations Pressure Air Temp Water Temp Dewpoint Dewpoint Depression Visibility Wind Speed Wind Dir Waves Ship Positions

Ocean Fortune

Last reported at 2018-Apr-19 21:48 UTC. Time now 2018-Apr-26 06:02 UTC.
Position N 04°48' W 000°13'.

Length 69 m; draft 4.6 m.

Type: Other ship. MMSI: 311000276.

Date/timePositionNaut miles runAvg speedWind from/ knotsBaromVisibWave heightAir tempDewpointWater temp
2018-Apr-19 21:48N 04°48' W 000°13'411.5
2018-Apr-19 21:28N 04°52' W 000°11'511.4
2018-Apr-19 20:59N 04°57' W 000°09'611.5
2018-Apr-19 20:29N 05°02' W 000°07'611.7
2018-Apr-19 20:00N 05°08' W 000°06'611.8
2018-Apr-19 19:31N 05°13' W 000°04'611.4
2018-Apr-19 19:00N 05°18' W 000°00'611.2
2018-Apr-19 18:31N 05°23' E 000°02'611.5
2018-Apr-19 18:00N 05°29' E 000°03'611.2
2018-Apr-19 17:29N 05°34' E 000°05'510.4
2018-Apr-19 17:01N 05°38' E 000°01'1 1.0
2018-Apr-19 16:29N 05°38' E 000°01'0 0.0
2018-Apr-19 15:59N 05°38' E 000°01'0 0.0
2018-Apr-19 15:29N 05°38' E 000°01'0 0.0
2018-Apr-19 14:59N 05°38' E 000°01'0 0.0
2018-Apr-19 14:29N 05°38' E 000°01'0 0.0
2018-Apr-19 13:59N 05°38' E 000°01'0 0.0
2018-Apr-19 13:29N 05°38' E 000°01'0 0.0
2018-Apr-19 12:59N 05°38' E 000°01'0 0.0
2018-Apr-19 12:29N 05°38' E 000°01'0 0.0
2018-Apr-19 11:59N 05°38' E 000°01'0 0.0
2018-Apr-19 11:29N 05°38' E 000°01'0 0.0
2018-Apr-19 10:59N 05°38' E 000°01'0 0.0
2018-Apr-19 10:29N 05°38' E 000°01'0 1.0
2018-Apr-19 10:00N 05°38' E 000°01'4 8.6
2018-Apr-19 09:30N 05°35' E 000°05'4 7.5
2018-Apr-19 09:00N 05°32' E 000°06'5 9.0
2018-Apr-19 08:29N 05°27' E 000°05'12 6.9
2018-Apr-19 06:43N 05°15' E 000°04'7 0.1
2018-Apr-17 03:29N 05°08' E 000°02'4 9.6
2018-Apr-17 03:00N 05°13' E 000°03'5 9.4
2018-Apr-17 02:30N 05°18' E 000°03'5 9.3
2018-Apr-17 02:00N 05°22' E 000°04'5 9.1
2018-Apr-17 01:30N 05°27' E 000°05'5 9.0
2018-Apr-17 00:59N 05°31' E 000°05'4 8.9
2018-Apr-17 00:30N 05°36' E 000°05'4 8.2
2018-Apr-17 00:00N 05°38' E 000°02'1 1.9
2018-Apr-16 23:30N 05°38' E 000°01'0 0.0
2018-Apr-16 23:00N 05°38' E 000°01'0 0.0
2018-Apr-16 22:30N 05°38' E 000°01'0 0.0
2018-Apr-16 22:00N 05°38' E 000°01'0 0.0
2018-Apr-16 21:30N 05°38' E 000°01'0 0.0
2018-Apr-16 21:00N 05°38' E 000°01'0 0.0
2018-Apr-16 20:30N 05°38' E 000°01'0 0.0
2018-Apr-16 20:00N 05°38' E 000°01'0 0.0
2018-Apr-16 19:30N 05°38' E 000°01'0 0.0
2018-Apr-16 19:00N 05°38' E 000°01'0 0.0
2018-Apr-16 18:30N 05°38' E 000°01'0 0.0
2018-Apr-16 18:00N 05°38' E 000°01'0 0.0
2018-Apr-16 17:30N 05°38' E 000°01'0 0.0
2018-Apr-16 17:00N 05°38' E 000°01'0 0.0
2018-Apr-16 16:30N 05°38' E 000°01'0 0.0
2018-Apr-16 16:00N 05°38' E 000°01'0 0.0
2018-Apr-16 15:30N 05°38' E 000°01'0 0.0
2018-Apr-16 15:00N 05°38' E 000°01'0 0.0
2018-Apr-16 14:30N 05°38' E 000°01'0 0.0
2018-Apr-16 13:57N 05°38' E 000°01'0 0.0
2018-Apr-16 12:39N 05°38' E 000°01'0 0.0
2018-Apr-16 12:30N 05°38' E 000°01'0 0.0
2018-Apr-16 12:00N 05°38' E 000°01'0 0.0
2018-Apr-16 11:30N 05°38' E 000°01'0 0.0
2018-Apr-16 11:00N 05°38' E 000°01'0 0.0
2018-Apr-16 10:30N 05°38' E 000°01'0 0.0
2018-Apr-16 10:00N 05°38' E 000°01'0 0.0
2018-Apr-16 09:30N 05°38' E 000°01'0 0.0
2018-Apr-16 09:00N 05°38' E 000°01'0 0.8
2018-Apr-16 08:31N 05°38' E 000°01'3 6.5
2018-Apr-16 08:00N 05°36' E 000°04'4 8.0
2018-Apr-16 07:30N 05°33' E 000°06'4 8.3
2018-Apr-16 07:00N 05°29' E 000°06'4 7.6
2018-Apr-16 06:31N 05°25' E 000°05'2 3.3
2018-Apr-16 06:00N 05°24' E 000°04'2 3.9
2018-Apr-16 05:25N 05°21' E 000°03'  
Track history (hours):
 
Tides and Currents Weather Stations Pressure Air Temp Water Temp Dewpoint Dewpoint Depression Visibility Wind Speed Wind Dir Waves Ship Positions

Ocean Fortune

Last reported at 2018-Apr-19 21:48 UTC. Time now 2018-Apr-26 06:02 UTC.
Position N 04°48' W 000°13'.

Length 69 m; draft 4.6 m.

Type: Other ship. MMSI: 311000276.

Date/timePositionNaut miles runAvg speedWind from/ knotsBaromVisibWave heightAir tempDewpointWater temp
2018-Apr-19 21:48N 04°48' W 000°13'411.5
2018-Apr-19 21:28N 04°52' W 000°11'511.4
2018-Apr-19 20:59N 04°57' W 000°09'611.5
2018-Apr-19 20:29N 05°02' W 000°07'611.7
2018-Apr-19 20:00N 05°08' W 000°06'611.8
2018-Apr-19 19:31N 05°13' W 000°04'611.4
2018-Apr-19 19:00N 05°18' W 000°00'611.2
2018-Apr-19 18:31N 05°23' E 000°02'611.5
2018-Apr-19 18:00N 05°29' E 000°03'611.2
2018-Apr-19 17:29N 05°34' E 000°05'510.4
2018-Apr-19 17:01N 05°38' E 000°01'1 1.0
2018-Apr-19 16:29N 05°38' E 000°01'0 0.0
2018-Apr-19 15:59N 05°38' E 000°01'0 0.0
2018-Apr-19 15:29N 05°38' E 000°01'0 0.0
2018-Apr-19 14:59N 05°38' E 000°01'0 0.0
2018-Apr-19 14:29N 05°38' E 000°01'0 0.0
2018-Apr-19 13:59N 05°38' E 000°01'0 0.0
2018-Apr-19 13:29N 05°38' E 000°01'0 0.0
2018-Apr-19 12:59N 05°38' E 000°01'0 0.0
2018-Apr-19 12:29N 05°38' E 000°01'0 0.0
2018-Apr-19 11:59N 05°38' E 000°01'0 0.0
2018-Apr-19 11:29N 05°38' E 000°01'0 0.0
2018-Apr-19 10:59N 05°38' E 000°01'0 0.0
2018-Apr-19 10:29N 05°38' E 000°01'0 1.0
2018-Apr-19 10:00N 05°38' E 000°01'4 8.6
2018-Apr-19 09:30N 05°35' E 000°05'4 7.5
2018-Apr-19 09:00N 05°32' E 000°06'5 9.0
2018-Apr-19 08:29N 05°27' E 000°05'12 6.9
2018-Apr-19 06:43N 05°15' E 000°04'7 0.1
2018-Apr-17 03:29N 05°08' E 000°02'4 9.6
2018-Apr-17 03:00N 05°13' E 000°03'5 9.4
2018-Apr-17 02:30N 05°18' E 000°03'5 9.3
2018-Apr-17 02:00N 05°22' E 000°04'5 9.1
2018-Apr-17 01:30N 05°27' E 000°05'5 9.0
2018-Apr-17 00:59N 05°31' E 000°05'4 8.9
2018-Apr-17 00:30N 05°36' E 000°05'4 8.2
2018-Apr-17 00:00N 05°38' E 000°02'1 1.9
2018-Apr-16 23:30N 05°38' E 000°01'0 0.0
2018-Apr-16 23:00N 05°38' E 000°01'0 0.0
2018-Apr-16 22:30N 05°38' E 000°01'0 0.0
2018-Apr-16 22:00N 05°38' E 000°01'0 0.0
2018-Apr-16 21:30N 05°38' E 000°01'0 0.0
2018-Apr-16 21:00N 05°38' E 000°01'0 0.0
2018-Apr-16 20:30N 05°38' E 000°01'0 0.0
2018-Apr-16 20:00N 05°38' E 000°01'0 0.0
2018-Apr-16 19:30N 05°38' E 000°01'0 0.0
2018-Apr-16 19:00N 05°38' E 000°01'0 0.0
2018-Apr-16 18:30N 05°38' E 000°01'0 0.0
2018-Apr-16 18:00N 05°38' E 000°01'0 0.0
2018-Apr-16 17:30N 05°38' E 000°01'0 0.0
2018-Apr-16 17:00N 05°38' E 000°01'0 0.0
2018-Apr-16 16:30N 05°38' E 000°01'0 0.0
2018-Apr-16 16:00N 05°38' E 000°01'0 0.0
2018-Apr-16 15:30N 05°38' E 000°01'0 0.0
2018-Apr-16 15:00N 05°38' E 000°01'0 0.0
2018-Apr-16 14:30N 05°38' E 000°01'0 0.0
2018-Apr-16 13:57N 05°38' E 000°01'0 0.0
2018-Apr-16 12:39N 05°38' E 000°01'0 0.0
2018-Apr-16 12:30N 05°38' E 000°01'0 0.0
2018-Apr-16 12:00N 05°38' E 000°01'0 0.0
2018-Apr-16 11:30N 05°38' E 000°01'0 0.0
2018-Apr-16 11:00N 05°38' E 000°01'0 0.0
2018-Apr-16 10:30N 05°38' E 000°01'0 0.0
2018-Apr-16 10:00N 05°38' E 000°01'0 0.0
2018-Apr-16 09:30N 05°38' E 000°01'0 0.0
2018-Apr-16 09:00N 05°38' E 000°01'0 0.8
2018-Apr-16 08:31N 05°38' E 000°01'3 6.5
2018-Apr-16 08:00N 05°36' E 000°04'4 8.0
2018-Apr-16 07:30N 05°33' E 000°06'4 8.3
2018-Apr-16 07:00N 05°29' E 000°06'4 7.6
2018-Apr-16 06:31N 05°25' E 000°05'2 3.3
2018-Apr-16 06:00N 05°24' E 000°04'2 3.9
2018-Apr-16 05:25N 05°21' E 000°03'  

Dump ship's entire track history